Preview of NWS' New Version of Forecast
This preview is not operational and should not be used for support decisions.

Terminal Aerodrome Forecast (TAF)

Issued by National Weather Service (NWS)

                            
100 
FTUS42 KKEY 280533
TAFEYW
TAF
KEYW 280533Z 2806/2906 17012G19KT P6SM SCT014 BKN030 BKN040
      TEMPO 2807/2810 6SM -RA BR BKN014 BKN030
     FM281200 18016G27KT P6SM VCTS SCT020CB BKN100=